Heidelberg, Mississippi
Current Conditions -  °F | °C
As of 5:58 PM on Saturday 25 Oct 2014 (Local Time) from KMEI Reporting Station
Clear Clear  
Wind Chill: 74°   Ceiling: Unl
Heat Index: 74°   Visibility: 10mi
Dew Point: 61°   Wind: 0mph
Humidity: 64%   Direction: NA
Pressure: 30.05"   Gusts: NA
Location:  31.89°N, 88.98°W
Report Text: KMEI 252258Z 00000KT 10SM CLR 23/16 A3005 RMK AO2 SLP175 T02330161
Loading
Personal Weather Stations






























Interactive Weather Map New forecast layout! Learn more

10-Day Weather Forecast

Advertisements
Track Severe Weather on mobile